Finchford, Iowa
Current Conditions -  °F | °C
As of 7:54 AM on Saturday 25 Oct 2014 (Local Time) from KALO Reporting Station
Clear Clear  
Wind Chill: 44°   Ceiling: Unl
Heat Index: 44°   Visibility: 10mi
Dew Point: 42°   Wind: 3mph
Humidity: 93%   Direction: 280°W
Pressure: 30.02"   Gusts: NA
Location:  42.6537°N, 92.488°W
Report Text: KALO 251254Z 28003KT 10SM CLR 07/06 A3002 RMK AO2 SLP169 T00670056
Loading
Personal Weather Stations






























Interactive Weather Map
Tropical Storm Tracking
New forecast layout! Learn more

10-Day Weather Forecast

Advertisements
Track Severe Weather on mobile